Time;durP1;ratioP1;P1;durP2;ratioP2;P2;SDS_P1;SDS_P2;PMS_P1;PMS_P2;Temp;Humidity;BMP_temperature;BMP_pressure;BME280_temperature;BME280_humidity;BME280_pressure;Samples;Min_cycle;Max_cycle;Signal;HPM_P1;HPM_P2
2022/08/25 00:01:33;;;;;;;16.88;15.27;;;;;;;;;;5033991;28;24562;-46
2022/08/25 00:03:59;;;;;;;17.77;15.93;;;;;;;;;;5030488;28;24428;-47
2022/08/25 00:06:24;;;;;;;18.37;16.70;;;;;;;;;;5028598;28;24454;-47
2022/08/25 00:08:50;;;;;;;16.70;15.10;;;;;;;;;;5037799;28;24753;-47
2022/08/25 00:11:17;;;;;;;17.65;15.95;;;;;;;;;;5042051;28;24982;-47
2022/08/25 00:13:44;;;;;;;17.55;15.75;;;;;;;;;;5041759;28;24473;-47
2022/08/25 00:16:10;;;;;;;18.70;16.70;;;;;;;;;;5043797;28;24435;-47
2022/08/25 00:18:36;;;;;;;18.77;16.88;;;;;;;;;;5034057;28;24777;-47
2022/08/25 00:21:02;;;;;;;18.65;16.85;;;;;;;;;;5037734;28;24426;-47
2022/08/25 00:23:27;;;;;;;17.03;15.43;;;;;;;;;;5043832;28;24517;-47
2022/08/25 00:25:52;;;;;;;17.48;15.68;;;;;;;;;;5045984;28;24427;-47
2022/08/25 00:28:18;;;;;;;17.67;15.10;;;;;;;;;;5032220;28;24423;-46
2022/08/25 00:30:43;;;;;;;18.20;16.40;;;;;;;;;;5042879;28;24522;-47
2022/08/25 00:33:08;;;;;;;18.00;16.20;;;;;;;;;;5041419;28;24435;-47
2022/08/25 00:35:34;;;;;;;16.83;15.27;;;;;;;;;;5033499;28;24507;-46
2022/08/25 00:37:59;;;;;;;16.67;15.07;;;;;;;;;;5034039;28;24786;-46
2022/08/25 00:40:25;;;;;;;17.80;16.20;;;;;;;;;;5031664;28;24462;-46
2022/08/25 00:42:50;;;;;;;17.73;15.95;;;;;;;;;;5044271;28;24419;-46
2022/08/25 00:45:17;;;;;;;17.20;15.70;;;;;;;;;;5048561;28;24525;-47
2022/08/25 00:47:42;;;;;;;17.77;16.08;;;;;;;;;;5044122;28;24434;-47
2022/08/25 00:50:09;;;;;;;17.10;15.40;;;;;;;;;;5027051;28;24416;-46
2022/08/25 00:52:39;;;;;;;16.92;15.23;;;;;;;;;;5040041;28;24423;-46
2022/08/25 00:55:10;;;;;;;17.85;15.82;;;;;;;;;;5044635;28;24432;-46
2022/08/25 00:57:36;;;;;;;16.77;15.20;;;;;;;;;;5052819;28;24423;-47
2022/08/25 01:00:12;;;;;;;17.65;15.85;;;;;;;;;;5047801;28;24430;-46
2022/08/25 01:02:37;;;;;;;16.40;14.80;;;;;;;;;;5044529;28;24495;-47
2022/08/25 01:05:02;;;;;;;17.33;15.50;;;;;;;;;;5048309;28;24522;-46
2022/08/25 01:07:28;;;;;;;16.63;15.02;;;;;;;;;;5050342;28;24461;-46
2022/08/25 01:09:54;;;;;;;17.40;15.70;;;;;;;;;;5050098;28;24388;-46
2022/08/25 01:12:20;;;;;;;16.55;14.95;;;;;;;;;;5047209;28;24427;-44
2022/08/25 01:14:45;;;;;;;16.02;14.43;;;;;;;;;;5044988;28;24423;-46
2022/08/25 01:17:10;;;;;;;16.95;15.25;;;;;;;;;;5048700;28;24430;-45
2022/08/25 01:19:36;;;;;;;16.37;14.83;;;;;;;;;;5048934;28;24466;-45
2022/08/25 01:22:01;;;;;;;16.73;15.20;;;;;;;;;;5047714;28;24392;-46
2022/08/25 01:24:35;;;;;;;16.25;14.65;;;;;;;;;;5030515;28;24415;-45
2022/08/25 01:27:00;;;;;;;16.67;15.05;;;;;;;;;;5042412;28;24488;-48
2022/08/25 01:29:26;;;;;;;16.73;15.05;;;;;;;;;;5031896;28;24435;-45
2022/08/25 01:31:55;;;;;;;16.00;14.30;;;;;;;;;;5047208;28;24411;-46
2022/08/25 01:34:20;;;;;;;16.80;15.20;;;;;;;;;;5044613;28;24999;-46
2022/08/25 01:36:46;;;;;;;16.70;15.00;;;;;;;;;;5048200;28;24427;-46
2022/08/25 01:39:11;;;;;;;15.97;14.47;;;;;;;;;;5048071;28;24423;-44
2022/08/25 01:41:57;;;;;;;17.13;15.40;;;;;;;;;;5046525;28;24433;-44
2022/08/25 01:44:23;;;;;;;15.57;14.00;;;;;;;;;;5047867;28;24973;-45
2022/08/25 01:46:50;;;;;;;16.70;15.00;;;;;;;;;;5033029;28;24395;-45
2022/08/25 01:49:15;;;;;;;16.23;14.63;;;;;;;;;;5037707;28;25037;-45
2022/08/25 01:51:46;;;;;;;16.80;15.10;;;;;;;;;;5030372;28;24969;-46
2022/08/25 01:54:11;;;;;;;16.73;15.20;;;;;;;;;;5045758;28;24488;-46
2022/08/25 01:56:37;;;;;;;16.05;14.55;;;;;;;;;;5045103;28;24844;-45
2022/08/25 01:59:02;;;;;;;17.23;15.50;;;;;;;;;;5041807;28;24411;-46
2022/08/25 02:01:27;;;;;;;16.08;14.57;;;;;;;;;;5037717;28;24519;-45
2022/08/25 02:03:54;;;;;;;15.10;13.80;;;;;;;;;;5043937;28;24427;-45
2022/08/25 02:06:27;;;;;;;16.10;14.50;;;;;;;;;;5039609;28;24515;-45
2022/08/25 02:08:53;;;;;;;15.70;14.20;;;;;;;;;;5032694;28;24518;-45
2022/08/25 02:11:19;;;;;;;15.15;13.55;;;;;;;;;;5035132;28;24580;-46
2022/08/25 02:13:44;;;;;;;16.10;14.60;;;;;;;;;;5042899;28;24562;-45
2022/08/25 02:16:13;;;;;;;16.77;14.83;;;;;;;;;;5043859;28;24426;-46
2022/08/25 02:18:39;;;;;;;16.00;14.40;;;;;;;;;;5039224;28;24695;-46
2022/08/25 02:21:04;;;;;;;15.98;14.48;;;;;;;;;;5047352;28;25346;-46
2022/08/25 02:23:29;;;;;;;16.00;14.43;;;;;;;;;;5041581;28;24423;-46
2022/08/25 02:25:56;;;;;;;16.10;14.40;;;;;;;;;;5040951;28;24519;-45
2022/08/25 02:28:21;;;;;;;15.65;14.15;;;;;;;;;;5038464;28;24425;-45
2022/08/25 02:30:46;;;;;;;15.97;14.37;;;;;;;;;;5048749;28;24414;-46
2022/08/25 02:33:12;;;;;;;15.77;14.38;;;;;;;;;;5043077;28;24461;-46
2022/08/25 02:35:37;;;;;;;16.53;14.90;;;;;;;;;;5046498;28;25023;-46
2022/08/25 02:38:02;;;;;;;17.07;15.47;;;;;;;;;;5040838;28;24469;-45
2022/08/25 02:40:27;;;;;;;15.60;14.10;;;;;;;;;;5046178;28;24514;-46
2022/08/25 02:42:52;;;;;;;16.98;15.38;;;;;;;;;;5041027;28;24478;-46
2022/08/25 02:45:18;;;;;;;15.87;14.27;;;;;;;;;;5030533;28;24412;-46
2022/08/25 02:47:43;;;;;;;16.50;14.70;;;;;;;;;;5036011;28;24473;-45
2022/08/25 02:50:09;;;;;;;16.10;14.57;;;;;;;;;;5039105;28;24512;-46
2022/08/25 02:52:34;;;;;;;15.80;14.20;;;;;;;;;;5037943;28;24916;-45
2022/08/25 02:55:03;;;;;;;16.30;14.70;;;;;;;;;;5039585;28;24439;-46
2022/08/25 02:57:29;;;;;;;16.13;13.90;;;;;;;;;;5031169;28;24883;-45
2022/08/25 02:59:54;;;;;;;16.20;14.60;;;;;;;;;;5039125;28;24957;-45
2022/08/25 03:02:19;;;;;;;15.82;14.20;;;;;;;;;;5036561;28;24415;-45
2022/08/25 03:04:44;;;;;;;15.50;14.10;;;;;;;;;;5029598;28;24428;-46
2022/08/25 03:07:09;;;;;;;15.90;14.40;;;;;;;;;;5046156;28;24522;-45
2022/08/25 03:09:35;;;;;;;15.23;13.77;;;;;;;;;;5040009;28;24841;-46
2022/08/25 03:12:00;;;;;;;15.90;14.40;;;;;;;;;;5044977;28;24447;-46
2022/08/25 03:14:26;;;;;;;15.57;14.07;;;;;;;;;;5042209;28;25088;-46
2022/08/25 03:16:51;;;;;;;16.20;14.60;;;;;;;;;;5041539;28;24474;-46
2022/08/25 03:19:16;;;;;;;15.63;14.13;;;;;;;;;;5036861;28;24420;-45
2022/08/25 03:21:41;;;;;;;15.60;14.10;;;;;;;;;;5043490;28;24422;-46
2022/08/25 03:24:07;;;;;;;15.07;13.57;;;;;;;;;;5047286;28;25037;-46
2022/08/25 03:29:17;;;;;;;16.33;14.67;;;;;;;;;;5040422;28;24466;-46
2022/08/25 03:31:43;;;;;;;16.20;14.60;;;;;;;;;;5040203;28;24427;-46
2022/08/25 03:34:08;;;;;;;15.73;13.65;;;;;;;;;;5043739;28;25011;-46
2022/08/25 03:36:34;;;;;;;14.87;13.57;;;;;;;;;;5037501;28;24450;-47
2022/08/25 03:38:59;;;;;;;15.90;14.40;;;;;;;;;;5039121;28;24416;-46
2022/08/25 03:41:27;;;;;;;16.40;14.70;;;;;;;;;;5033618;28;24481;-46
2022/08/25 03:43:52;;;;;;;14.68;13.38;;;;;;;;;;5038232;28;24473;-46
2022/08/25 03:46:38;;;;;;;15.80;14.20;;;;;;;;;;5037166;28;24482;-46
2022/08/25 03:49:04;;;;;;;16.25;14.65;;;;;;;;;;5039545;28;24427;-45
2022/08/25 03:51:34;;;;;;;16.10;14.50;;;;;;;;;;5032171;28;24427;-46
2022/08/25 03:54:00;;;;;;;15.77;14.18;;;;;;;;;;5028334;28;25052;-46
2022/08/25 03:56:26;;;;;;;15.73;14.13;;;;;;;;;;5036118;28;24522;-46
2022/08/25 03:58:51;;;;;;;16.23;14.13;;;;;;;;;;5045819;28;24487;-46
2022/08/25 04:01:16;;;;;;;16.40;14.80;;;;;;;;;;5040268;28;24423;-48
2022/08/25 04:03:42;;;;;;;15.60;14.10;;;;;;;;;;5044071;28;24446;-46
2022/08/25 04:06:07;;;;;;;16.03;14.53;;;;;;;;;;5043601;28;24447;-47
2022/08/25 04:08:33;;;;;;;16.70;15.17;;;;;;;;;;5031738;28;24481;-47
2022/08/25 04:10:58;;;;;;;16.15;14.55;;;;;;;;;;5039753;28;24786;-45
2022/08/25 04:13:24;;;;;;;15.97;14.47;;;;;;;;;;5039362;28;25382;-46
2022/08/25 04:15:49;;;;;;;15.00;13.50;;;;;;;;;;5036932;28;24524;-46
2022/08/25 04:18:14;;;;;;;16.55;14.85;;;;;;;;;;5034455;28;24771;-47
2022/08/25 04:20:41;;;;;;;16.70;15.00;;;;;;;;;;5038425;28;24465;-47
2022/08/25 04:23:06;;;;;;;18.23;16.42;;;;;;;;;;5033960;28;24419;-47
2022/08/25 04:25:31;;;;;;;17.90;16.00;;;;;;;;;;5040835;28;24438;-47
2022/08/25 04:27:56;;;;;;;17.83;16.13;;;;;;;;;;5035303;28;24419;-47
2022/08/25 04:30:21;;;;;;;17.90;16.00;;;;;;;;;;5029488;28;24431;-44
2022/08/25 04:32:47;;;;;;;17.20;15.50;;;;;;;;;;5035118;28;24412;-44
2022/08/25 04:35:12;;;;;;;17.73;16.13;;;;;;;;;;5027323;28;24443;-45
2022/08/25 04:37:38;;;;;;;18.00;16.30;;;;;;;;;;5038415;28;24484;-45
2022/08/25 04:40:03;;;;;;;18.00;15.70;;;;;;;;;;5035534;28;24446;-46
2022/08/25 04:42:28;;;;;;;17.50;15.80;;;;;;;;;;5029203;28;24542;-45
2022/08/25 04:44:54;;;;;;;17.83;16.02;;;;;;;;;;5040735;28;24466;-46
2022/08/25 04:47:19;;;;;;;18.20;16.40;;;;;;;;;;5030293;28;24577;-46
2022/08/25 04:49:44;;;;;;;16.90;15.17;;;;;;;;;;5029618;28;24484;-46
2022/08/25 04:52:09;;;;;;;17.30;15.50;;;;;;;;;;5033607;28;24427;-46
2022/08/25 04:54:34;;;;;;;17.10;15.40;;;;;;;;;;5039721;28;24492;-45
2022/08/25 04:56:59;;;;;;;18.50;16.60;;;;;;;;;;5027410;28;24443;-46
2022/08/25 04:59:25;;;;;;;17.30;15.70;;;;;;;;;;5034782;28;24829;-45
2022/08/25 05:01:50;;;;;;;17.17;15.57;;;;;;;;;;5028581;28;24547;-45
2022/08/25 05:04:16;;;;;;;19.10;17.30;;;;;;;;;;5028391;28;24439;-45
2022/08/25 05:06:42;;;;;;;16.47;14.97;;;;;;;;;;5023653;28;24495;-45
2022/08/25 05:09:07;;;;;;;17.00;15.40;;;;;;;;;;5029039;28;24431;-45
2022/08/25 05:11:32;;;;;;;17.70;15.75;;;;;;;;;;5037997;28;24446;-45
2022/08/25 05:13:59;;;;;;;17.70;16.03;;;;;;;;;;5025361;28;24486;-45
2022/08/25 05:16:25;;;;;;;16.55;14.95;;;;;;;;;;5030272;28;25057;-46
2022/08/25 05:18:51;;;;;;;16.27;14.77;;;;;;;;;;5026567;28;24445;-46
2022/08/25 05:21:17;;;;;;;15.88;14.27;;;;;;;;;;5032542;28;24470;-45
2022/08/25 05:23:43;;;;;;;16.60;15.10;;;;;;;;;;5030226;28;24450;-46
2022/08/25 05:26:12;;;;;;;15.00;13.60;;;;;;;;;;5034924;28;24966;-45
2022/08/25 05:28:40;;;;;;;14.90;13.60;;;;;;;;;;5034038;28;24493;-45
2022/08/25 05:31:07;;;;;;;14.38;13.07;;;;;;;;;;5029679;28;24428;-46
2022/08/25 05:33:32;;;;;;;13.65;12.45;;;;;;;;;;5035074;28;24992;-46
2022/08/25 05:35:57;;;;;;;14.95;13.65;;;;;;;;;;5026029;28;24427;-46
2022/08/25 05:38:22;;;;;;;14.75;13.45;;;;;;;;;;5035995;28;24860;-46
2022/08/25 05:40:51;;;;;;;13.35;12.05;;;;;;;;;;5040992;28;24418;-46
2022/08/25 05:43:16;;;;;;;16.55;15.05;;;;;;;;;;5034616;28;24980;-46
2022/08/25 05:45:41;;;;;;;15.05;13.63;;;;;;;;;;5034107;28;24447;-45
2022/08/25 05:48:06;;;;;;;15.90;14.43;;;;;;;;;;5034764;28;24774;-46
2022/08/25 05:50:31;;;;;;;14.30;12.90;;;;;;;;;;5030532;28;24523;-46
2022/08/25 05:52:57;;;;;;;14.70;13.40;;;;;;;;;;5037425;28;24707;-47
2022/08/25 05:55:22;;;;;;;14.40;13.00;;;;;;;;;;5044586;28;24430;-46
2022/08/25 05:57:47;;;;;;;14.38;13.00;;;;;;;;;;5036161;28;24419;-46
2022/08/25 06:00:13;;;;;;;13.40;12.30;;;;;;;;;;5030034;28;24976;-47
2022/08/25 06:02:43;;;;;;;14.30;13.03;;;;;;;;;;5035317;28;24983;-47
2022/08/25 06:05:10;;;;;;;14.18;12.88;;;;;;;;;;5044195;28;24585;-46
2022/08/25 06:07:35;;;;;;;13.63;12.37;;;;;;;;;;5038254;28;24431;-47
2022/08/25 06:10:02;;;;;;;12.10;11.10;;;;;;;;;;5033228;28;24439;-46
2022/08/25 06:12:27;;;;;;;13.60;12.50;;;;;;;;;;5032808;28;24411;-45
2022/08/25 06:14:52;;;;;;;13.60;12.30;;;;;;;;;;5037632;28;26576;-45
2022/08/25 06:17:17;;;;;;;14.90;13.40;;;;;;;;;;5042372;28;24411;-52
2022/08/25 06:19:43;;;;;;;13.60;12.40;;;;;;;;;;5044948;28;24903;-47
2022/08/25 06:22:08;;;;;;;13.50;12.30;;;;;;;;;;5042638;28;24481;-47
2022/08/25 06:24:33;;;;;;;12.23;11.13;;;;;;;;;;5042808;28;24528;-46
2022/08/25 06:26:59;;;;;;;11.77;10.67;;;;;;;;;;5043194;28;24420;-47
2022/08/25 06:29:24;;;;;;;13.13;11.83;;;;;;;;;;5039577;28;24831;-47
2022/08/25 06:31:50;;;;;;;13.60;12.40;;;;;;;;;;5034369;28;25087;-46
2022/08/25 06:34:15;;;;;;;13.30;12.10;;;;;;;;;;5043073;28;24446;-46
2022/08/25 06:36:40;;;;;;;13.10;12.00;;;;;;;;;;5043736;28;24442;-47
2022/08/25 06:39:05;;;;;;;13.90;12.60;;;;;;;;;;5039918;28;24489;-47
2022/08/25 06:41:31;;;;;;;14.10;12.80;;;;;;;;;;5033293;28;24415;-47
2022/08/25 06:43:56;;;;;;;15.27;13.77;;;;;;;;;;5043044;28;24560;-46
2022/08/25 06:46:23;;;;;;;14.30;12.90;;;;;;;;;;5047860;28;24391;-47
2022/08/25 06:48:48;;;;;;;14.80;13.40;;;;;;;;;;5048210;28;24391;-47
2022/08/25 06:51:14;;;;;;;14.27;12.97;;;;;;;;;;5030568;28;24427;-46
2022/08/25 06:53:40;;;;;;;15.02;13.68;;;;;;;;;;5027477;28;24458;-46
2022/08/25 06:56:05;;;;;;;15.20;13.80;;;;;;;;;;5041859;28;24478;-46
2022/08/25 06:58:31;;;;;;;14.60;13.37;;;;;;;;;;5046905;28;24430;-47
2022/08/25 07:01:05;;;;;;;15.20;13.90;;;;;;;;;;5028565;28;24969;-46
2022/08/25 07:03:30;;;;;;;15.75;14.35;;;;;;;;;;5027485;28;24489;-46
2022/08/25 07:05:55;;;;;;;14.88;13.68;;;;;;;;;;5028196;28;24964;-47
2022/08/25 07:08:21;;;;;;;14.47;13.07;;;;;;;;;;5027730;28;24396;-46
2022/08/25 07:10:46;;;;;;;15.30;13.90;;;;;;;;;;5028411;28;24945;-47
2022/08/25 07:13:11;;;;;;;15.90;14.50;;;;;;;;;;5046379;28;24690;-48
2022/08/25 07:15:37;;;;;;;17.80;16.00;;;;;;;;;;5031882;28;24438;-46
2022/08/25 07:18:03;;;;;;;15.60;14.20;;;;;;;;;;5027789;28;24397;-46
2022/08/25 07:20:30;;;;;;;16.25;14.80;;;;;;;;;;5027979;28;25029;-47
2022/08/25 07:22:55;;;;;;;15.38;13.98;;;;;;;;;;5033899;28;24955;-46
2022/08/25 07:25:20;;;;;;;14.77;13.37;;;;;;;;;;5045870;28;24391;-46
2022/08/25 07:27:46;;;;;;;16.10;14.60;;;;;;;;;;5045925;28;24423;-46
2022/08/25 07:30:11;;;;;;;20.30;18.20;;;;;;;;;;5045875;28;24423;-46
2022/08/25 07:32:36;;;;;;;15.70;14.20;;;;;;;;;;5046056;28;24817;-47
2022/08/25 07:35:17;;;;;;;15.60;14.10;;;;;;;;;;5046440;28;24846;-46
2022/08/25 07:37:48;;;;;;;15.18;13.88;;;;;;;;;;5046070;28;24477;-47
2022/08/25 07:40:18;;;;;;;15.27;13.98;;;;;;;;;;5046350;28;24424;-48
2022/08/25 07:42:43;;;;;;;15.73;14.32;;;;;;;;;;5047216;28;24487;-48
2022/08/25 07:45:09;;;;;;;14.60;13.40;;;;;;;;;;5040700;28;24535;-48
2022/08/25 07:47:35;;;;;;;15.68;14.38;;;;;;;;;;5033835;28;24424;-47
2022/08/25 07:50:00;;;;;;;15.37;13.97;;;;;;;;;;5046115;28;24432;-46
2022/08/25 07:52:25;;;;;;;15.40;14.15;;;;;;;;;;5040961;28;24430;-47
2022/08/25 07:54:53;;;;;;;15.57;14.27;;;;;;;;;;5025365;28;25039;-47
2022/08/25 07:57:18;;;;;;;16.10;14.60;;;;;;;;;;5027222;28;24403;-46
2022/08/25 07:59:43;;;;;;;16.03;14.63;;;;;;;;;;5026794;28;24432;-47
2022/08/25 08:02:10;;;;;;;17.13;15.63;;;;;;;;;;5027020;28;24384;-47
2022/08/25 08:04:36;;;;;;;15.18;13.88;;;;;;;;;;5026112;28;24446;-47
2022/08/25 08:07:01;;;;;;;15.30;14.10;;;;;;;;;;5026656;28;24439;-46
2022/08/25 08:09:26;;;;;;;15.17;13.87;;;;;;;;;;5029501;28;24458;-46
2022/08/25 08:11:51;;;;;;;15.55;14.25;;;;;;;;;;5037581;28;24487;-47
2022/08/25 08:14:17;;;;;;;15.47;14.07;;;;;;;;;;5024066;28;24407;-46
2022/08/25 08:16:42;;;;;;;14.63;13.33;;;;;;;;;;5044445;28;24552;-46
2022/08/25 08:19:07;;;;;;;15.90;14.40;;;;;;;;;;5046515;28;24826;-47
2022/08/25 08:21:34;;;;;;;15.80;14.35;;;;;;;;;;5046374;28;24963;-46
2022/08/25 08:24:00;;;;;;;20.58;18.58;;;;;;;;;;5045067;28;24813;-47
2022/08/25 08:26:26;;;;;;;17.77;16.27;;;;;;;;;;5044547;28;25154;-47
2022/08/25 08:28:52;;;;;;;16.10;14.80;;;;;;;;;;5046681;28;24411;-46
2022/08/25 08:31:18;;;;;;;16.05;14.75;;;;;;;;;;5045720;28;24501;-47
2022/08/25 08:33:45;;;;;;;15.35;14.10;;;;;;;;;;5033975;28;24444;-47
2022/08/25 08:36:11;;;;;;;14.30;13.10;;;;;;;;;;5026556;28;24840;-47
2022/08/25 08:38:37;;;;;;;15.37;14.17;;;;;;;;;;5045140;28;25024;-46
2022/08/25 08:43:58;;;;;;;17.02;15.57;;;;;;;;;;5045662;28;24468;-46
2022/08/25 08:46:26;;;;;;;14.40;13.20;;;;;;;;;;5045337;28;24436;-47
2022/08/25 08:49:00;;;;;;;14.52;13.43;;;;;;;;;;5046634;28;24403;-47
2022/08/25 08:51:29;;;;;;;15.07;13.70;;;;;;;;;;5046227;28;25248;-47
2022/08/25 08:54:00;;;;;;;14.13;12.93;;;;;;;;;;5044965;28;24862;-48
2022/08/25 08:56:30;;;;;;;13.32;12.23;;;;;;;;;;5044709;28;24439;-47
2022/08/25 08:59:01;;;;;;;14.15;13.05;;;;;;;;;;5046252;28;24797;-47
2022/08/25 09:01:26;;;;;;;13.40;12.40;;;;;;;;;;5043570;28;24891;-47
2022/08/25 09:03:55;;;;;;;12.73;11.80;;;;;;;;;;5043800;28;24898;-47
2022/08/25 09:06:30;;;;;;;13.00;11.90;;;;;;;;;;5045997;28;25095;-47
2022/08/25 09:08:57;;;;;;;14.27;13.07;;;;;;;;;;5029268;28;24482;-47
2022/08/25 09:11:44;;;;;;;12.82;11.82;;;;;;;;;;5026161;28;24415;-48
2022/08/25 09:14:19;;;;;;;12.87;11.77;;;;;;;;;;5026024;28;24416;-48
2022/08/25 09:16:53;;;;;;;12.93;11.93;;;;;;;;;;5028386;28;24495;-48
2022/08/25 09:19:18;;;;;;;14.90;13.70;;;;;;;;;;5031721;28;24415;-47
2022/08/25 09:21:49;;;;;;;17.85;16.00;;;;;;;;;;5049615;28;24403;-48
2022/08/25 09:24:23;;;;;;;12.90;11.90;;;;;;;;;;5048595;28;24402;-47
2022/08/25 09:26:49;;;;;;;15.30;14.10;;;;;;;;;;5048761;28;24880;-47
2022/08/25 09:29:18;;;;;;;16.23;14.80;;;;;;;;;;5049823;28;24924;-47
2022/08/25 09:31:44;;;;;;;14.48;13.27;;;;;;;;;;5042230;28;24489;-47
2022/08/25 09:34:11;;;;;;;14.57;13.27;;;;;;;;;;5029223;28;24439;-47
2022/08/25 09:36:36;;;;;;;12.15;11.15;;;;;;;;;;5046171;28;24567;-47
2022/08/25 09:39:02;;;;;;;12.20;11.30;;;;;;;;;;5049537;28;24464;-47
2022/08/25 09:41:48;;;;;;;12.68;11.57;;;;;;;;;;5049099;28;24945;-47
2022/08/25 09:44:36;;;;;;;11.93;11.07;;;;;;;;;;5049298;28;24409;-48
2022/08/25 09:47:19;;;;;;;12.23;11.13;;;;;;;;;;5047073;28;25028;-48
2022/08/25 09:49:46;;;;;;;11.05;10.05;;;;;;;;;;5048948;28;24448;-48
2022/08/25 09:52:15;;;;;;;12.38;11.32;;;;;;;;;;5037051;28;24829;-47
2022/08/25 09:54:44;;;;;;;11.88;10.98;;;;;;;;;;5036852;28;24446;-48
2022/08/25 09:57:26;;;;;;;11.93;10.93;;;;;;;;;;5048718;28;24801;-48
2022/08/25 09:59:51;;;;;;;12.23;11.15;;;;;;;;;;5049319;28;24854;-47
2022/08/25 10:02:19;;;;;;;12.20;11.03;;;;;;;;;;5047517;28;25127;-47
2022/08/25 10:04:44;;;;;;;11.70;10.70;;;;;;;;;;5047861;28;24432;-47
2022/08/25 10:07:28;;;;;;;12.00;10.30;;;;;;;;;;5049365;28;24417;-48
2022/08/25 10:10:01;;;;;;;9.70;8.70;;;;;;;;;;5048476;28;24701;-47
2022/08/25 10:12:35;;;;;;;10.90;9.18;;;;;;;;;;5048822;28;24453;-47
2022/08/25 10:15:20;;;;;;;11.68;9.80;;;;;;;;;;5039182;28;24837;-46
2022/08/25 10:17:45;;;;;;;10.13;8.95;;;;;;;;;;5028734;28;24400;-47
2022/08/25 10:20:10;;;;;;;13.40;9.10;;;;;;;;;;5046932;28;24460;-47
2022/08/25 10:22:36;;;;;;;14.80;9.32;;;;;;;;;;5045211;28;24426;-47
2022/08/25 10:25:03;;;;;;;16.77;9.88;;;;;;;;;;5028783;28;24391;-47
2022/08/25 10:27:43;;;;;;;12.73;8.70;;;;;;;;;;5041634;28;24423;-47
2022/08/25 10:30:26;;;;;;;10.93;8.90;;;;;;;;;;5047559;28;24431;-47
2022/08/25 10:32:58;;;;;;;12.93;9.20;;;;;;;;;;5043812;28;24462;-46
2022/08/25 10:35:27;;;;;;;13.95;9.30;;;;;;;;;;5028232;28;24439;-47
2022/08/25 10:37:55;;;;;;;14.13;9.70;;;;;;;;;;5028723;28;24391;-47
2022/08/25 10:40:27;;;;;;;12.27;9.10;;;;;;;;;;5047677;28;24813;-48
2022/08/25 10:43:01;;;;;;;14.70;8.95;;;;;;;;;;5046062;28;24975;-47
2022/08/25 10:45:41;;;;;;;13.07;8.90;;;;;;;;;;5047270;28;24449;-47
2022/08/25 10:48:28;;;;;;;11.60;9.07;;;;;;;;;;5048387;28;24418;-46
2022/08/25 10:51:12;;;;;;;17.30;9.55;;;;;;;;;;5048227;28;24445;-47
2022/08/25 10:53:50;;;;;;;14.53;9.13;;;;;;;;;;5038544;28;24422;-47
2022/08/25 10:56:17;;;;;;;12.40;9.55;;;;;;;;;;5028223;28;24403;-46
2022/08/25 10:58:53;;;;;;;12.07;9.35;;;;;;;;;;5044890;28;24455;-47
2022/08/25 11:01:27;;;;;;;17.70;9.90;;;;;;;;;;5039784;28;24451;-47
2022/08/25 11:03:58;;;;;;;15.07;10.60;;;;;;;;;;5032252;28;24528;-47
2022/08/25 11:06:36;;;;;;;16.85;10.23;;;;;;;;;;5048108;28;24509;-46
2022/08/25 11:09:04;;;;;;;18.83;9.83;;;;;;;;;;5046978;28;24399;-45
2022/08/25 11:11:37;;;;;;;16.92;10.15;;;;;;;;;;5047595;28;24491;-45
2022/08/25 11:14:06;;;;;;;16.08;10.00;;;;;;;;;;5045405;28;24526;-46
2022/08/25 11:16:35;;;;;;;15.57;9.50;;;;;;;;;;5040015;28;24443;-45
2022/08/25 11:19:19;;;;;;;15.40;9.68;;;;;;;;;;5028039;28;24388;-45
2022/08/25 11:21:50;;;;;;;16.70;9.93;;;;;;;;;;5027421;28;24399;-46
2022/08/25 11:24:28;;;;;;;17.23;10.25;;;;;;;;;;5030203;28;25016;-46
2022/08/25 11:26:55;;;;;;;17.33;10.48;;;;;;;;;;5026981;28;24442;-47
2022/08/25 11:29:20;;;;;;;15.88;9.05;;;;;;;;;;5026407;28;24427;-46
2022/08/25 11:31:48;;;;;;;12.02;8.80;;;;;;;;;;5038132;28;24978;-47
2022/08/25 11:34:14;;;;;;;17.80;9.40;;;;;;;;;;5041742;28;24692;-47
2022/08/25 11:36:40;;;;;;;13.43;8.65;;;;;;;;;;5047274;28;24449;-46
2022/08/25 11:39:15;;;;;;;11.67;9.73;;;;;;;;;;5045703;28;24462;-47
2022/08/25 11:41:56;;;;;;;14.00;9.57;;;;;;;;;;5047124;28;24445;-46
2022/08/25 11:44:37;;;;;;;15.40;9.90;;;;;;;;;;5045637;28;25040;-47
2022/08/25 11:47:14;;;;;;;15.15;9.65;;;;;;;;;;5046652;28;24523;-47
2022/08/25 11:49:50;;;;;;;11.65;9.18;;;;;;;;;;5046993;28;24431;-47
2022/08/25 11:52:37;;;;;;;17.02;10.00;;;;;;;;;;5043210;28;24421;-47
2022/08/25 11:55:19;;;;;;;11.45;8.88;;;;;;;;;;5046130;28;24441;-47
2022/08/25 11:57:45;;;;;;;16.35;9.68;;;;;;;;;;5046880;28;24964;-48
2022/08/25 12:00:14;;;;;;;12.32;8.95;;;;;;;;;;5035153;28;24572;-47
2022/08/25 12:02:46;;;;;;;11.80;9.15;;;;;;;;;;5026969;28;24477;-47
2022/08/25 12:05:20;;;;;;;15.52;9.45;;;;;;;;;;5029006;28;25042;-47
2022/08/25 12:07:45;;;;;;;11.27;9.00;;;;;;;;;;5026748;28;24408;-47
2022/08/25 12:10:13;;;;;;;17.70;9.80;;;;;;;;;;5029998;28;24459;-48
2022/08/25 12:12:55;;;;;;;13.20;8.82;;;;;;;;;;5026716;28;24792;-48
2022/08/25 12:15:30;;;;;;;12.02;9.15;;;;;;;;;;5039963;28;24431;-49
2022/08/25 12:18:27;;;;;;;11.88;9.10;;;;;;;;;;5044499;28;24544;-49
2022/08/25 12:20:52;;;;;;;12.80;9.27;;;;;;;;;;5024815;28;24432;-48
2022/08/25 12:23:26;;;;;;;14.03;9.17;;;;;;;;;;5026673;28;24507;-47
2022/08/25 12:25:52;;;;;;;11.48;9.07;;;;;;;;;;5035504;28;24523;-48
2022/08/25 12:28:28;;;;;;;15.20;9.15;;;;;;;;;;5046891;28;24478;-47
2022/08/25 12:30:56;;;;;;;13.55;8.75;;;;;;;;;;5044518;28;24450;-47
2022/08/25 12:33:40;;;;;;;16.35;9.60;;;;;;;;;;5041908;28;24991;-47
2022/08/25 12:36:07;;;;;;;12.45;9.30;;;;;;;;;;5032951;28;25043;-47
2022/08/25 12:38:35;;;;;;;13.50;9.15;;;;;;;;;;5040947;28;24956;-45
2022/08/25 12:41:08;;;;;;;14.82;9.65;;;;;;;;;;5030761;28;24522;-47
2022/08/25 12:43:38;;;;;;;16.17;9.20;;;;;;;;;;5036568;28;24423;-47
2022/08/25 12:46:18;;;;;;;10.93;8.30;;;;;;;;;;5041629;28;24495;-47
2022/08/25 12:48:59;;;;;;;15.98;9.35;;;;;;;;;;5038859;28;25007;-45
2022/08/25 12:51:42;;;;;;;15.02;9.27;;;;;;;;;;5035859;28;24490;-46
2022/08/25 12:54:20;;;;;;;11.32;8.18;;;;;;;;;;5030556;28;25048;-47
2022/08/25 12:56:48;;;;;;;12.70;7.82;;;;;;;;;;5032322;28;24434;-47
2022/08/25 12:59:13;;;;;;;14.02;9.00;;;;;;;;;;5053488;28;24417;-46
2022/08/25 13:01:59;;;;;;;13.70;8.48;;;;;;;;;;5053001;28;24430;-47
2022/08/25 13:07:35;;;;;;;15.98;8.57;;;;;;;;;;5054927;28;25052;-47
2022/08/25 13:10:00;;;;;;;19.17;9.05;;;;;;;;;;5050415;28;24409;-46
2022/08/25 13:12:36;;;;;;;15.20;8.20;;;;;;;;;;5034863;28;24435;-47
2022/08/25 13:15:01;;;;;;;14.38;8.65;;;;;;;;;;5048361;28;24431;-47
2022/08/25 13:17:31;;;;;;;15.20;8.80;;;;;;;;;;5037559;28;24470;-47
2022/08/25 13:20:11;;;;;;;15.75;8.07;;;;;;;;;;5046857;28;24469;-47
2022/08/25 13:22:36;;;;;;;10.47;7.57;;;;;;;;;;5050237;28;24402;-47
2022/08/25 13:25:03;;;;;;;12.05;7.80;;;;;;;;;;5049287;28;24391;-48
2022/08/25 13:27:28;;;;;;;11.27;8.20;;;;;;;;;;5034984;28;24778;-48
2022/08/25 13:29:55;;;;;;;16.50;8.60;;;;;;;;;;5036559;28;25003;-47
2022/08/25 13:32:24;;;;;;;15.27;8.90;;;;;;;;;;5037942;28;24993;-48
2022/08/25 13:34:49;;;;;;;17.58;8.52;;;;;;;;;;5033003;28;25012;-47
2022/08/25 13:37:28;;;;;;;11.52;8.23;;;;;;;;;;5037130;28;24415;-47
2022/08/25 13:40:09;;;;;;;13.35;7.80;;;;;;;;;;5037760;28;24427;-47
2022/08/25 13:42:35;;;;;;;11.75;7.63;;;;;;;;;;5029877;28;24474;-47
2022/08/25 13:45:00;;;;;;;15.75;8.02;;;;;;;;;;5040680;28;24430;-48
2022/08/25 13:47:39;;;;;;;12.70;7.90;;;;;;;;;;5041407;28;24512;-47
2022/08/25 13:50:19;;;;;;;13.55;8.30;;;;;;;;;;5045834;28;24474;-47
2022/08/25 13:52:49;;;;;;;13.17;8.60;;;;;;;;;;5029277;28;24483;-47
2022/08/25 13:55:40;;;;;;;12.48;8.60;;;;;;;;;;5045804;28;24442;-46
2022/08/25 13:58:11;;;;;;;12.80;8.93;;;;;;;;;;5034972;28;24627;-47
2022/08/25 14:00:43;;;;;;;14.95;8.68;;;;;;;;;;5032904;28;24419;-47
2022/08/25 14:03:27;;;;;;;16.70;8.77;;;;;;;;;;5029011;28;24435;-46
2022/08/25 14:06:03;;;;;;;14.60;8.63;;;;;;;;;;5040579;28;24423;-46
2022/08/25 14:08:33;;;;;;;12.53;8.50;;;;;;;;;;5047377;28;24928;-46
2022/08/25 14:11:22;;;;;;;17.15;9.02;;;;;;;;;;5030209;28;24428;-47
2022/08/25 14:13:57;;;;;;;13.40;8.63;;;;;;;;;;5038504;28;24773;-47
2022/08/25 14:16:23;;;;;;;17.08;8.45;;;;;;;;;;5043163;28;24427;-47
2022/08/25 14:18:51;;;;;;;16.13;8.57;;;;;;;;;;5026259;28;24424;-46
2022/08/25 14:21:17;;;;;;;13.30;8.10;;;;;;;;;;5048211;28;24430;-46
2022/08/25 14:23:43;;;;;;;14.63;9.00;;;;;;;;;;5048348;28;25000;-47
2022/08/25 14:26:08;;;;;;;16.93;9.50;;;;;;;;;;5028993;28;24546;-46
2022/08/25 14:28:33;;;;;;;15.37;8.70;;;;;;;;;;5031142;28;24519;-47
2022/08/25 14:31:00;;;;;;;17.03;8.17;;;;;;;;;;5037107;28;24461;-46
2022/08/25 14:33:28;;;;;;;12.30;8.60;;;;;;;;;;5029961;28;24443;-46
2022/08/25 14:35:54;;;;;;;10.35;7.97;;;;;;;;;;5028451;28;24431;-46
2022/08/25 14:38:19;;;;;;;15.77;9.15;;;;;;;;;;5039674;28;24813;-47